createdAt,value
2023-10-15T00:02:53.867Z,12.00
2023-10-15T00:05:22.999Z,12.00
2023-10-15T00:07:51.563Z,12.00
2023-10-15T00:10:24.416Z,11.90
2023-10-15T00:12:52.745Z,11.90
2023-10-15T00:15:21.110Z,11.90
2023-10-15T00:17:53.759Z,11.90
2023-10-15T00:20:22.559Z,11.90
2023-10-15T00:22:51.533Z,11.90
2023-10-15T00:25:21.195Z,11.90
2023-10-15T00:27:54.590Z,11.90
2023-10-15T00:30:22.422Z,11.90
2023-10-15T00:32:50.637Z,11.80
2023-10-15T00:40:27.018Z,11.80
2023-10-15T00:42:54.267Z,11.70
2023-10-15T00:45:23.001Z,11.80
2023-10-15T00:48:09.310Z,11.70
2023-10-15T00:50:45.551Z,11.70
2023-10-15T00:53:23.815Z,11.60
2023-10-15T00:55:56.104Z,11.60
2023-10-15T00:58:33.384Z,11.60
2023-10-15T01:01:20.683Z,11.60
2023-10-15T01:03:53.555Z,11.40
2023-10-15T01:06:37.077Z,11.50
2023-10-15T01:09:20.214Z,11.40
2023-10-15T01:11:57.519Z,11.30
2023-10-15T01:14:39.166Z,11.30
2023-10-15T01:19:36.296Z,11.20
2023-10-15T01:22:09.812Z,11.20
2023-10-15T01:24:38.664Z,11.20
2023-10-15T01:27:11.615Z,11.20
2023-10-15T01:29:46.105Z,11.20
2023-10-15T01:32:20.480Z,11.10
2023-10-15T01:34:50.403Z,11.00
2023-10-15T01:37:24.476Z,11.00
2023-10-15T01:40:02.033Z,11.00
2023-10-15T01:42:29.409Z,11.00
2023-10-15T01:45:12.944Z,10.90
2023-10-15T01:47:51.092Z,10.90
2023-10-15T01:50:25.529Z,10.90
2023-10-15T01:55:31.332Z,10.90
2023-10-15T01:58:02.528Z,10.80
2023-10-15T02:00:45.299Z,10.80
2023-10-15T02:03:13.126Z,10.80
2023-10-15T02:05:43.482Z,10.80
2023-10-15T02:08:14.211Z,10.80
2023-10-15T02:10:48.642Z,10.80
2023-10-15T02:13:21.036Z,10.80
2023-10-15T02:15:50.758Z,10.80
2023-10-15T02:18:20.920Z,10.70
2023-10-15T02:20:54.893Z,10.80
2023-10-15T02:26:00.394Z,10.90
2023-10-15T02:28:37.955Z,10.90
2023-10-15T02:31:07.938Z,10.80
2023-10-15T02:33:34.897Z,10.70
2023-10-15T02:43:42.498Z,10.60
2023-10-15T02:46:24.789Z,10.60
2023-10-15T02:48:54.977Z,10.70
2023-10-15T02:51:26.320Z,10.60
2023-10-15T02:56:23.183Z,10.60
2023-10-15T02:58:52.030Z,10.50
2023-10-15T03:03:54.270Z,10.60
2023-10-15T03:06:32.571Z,10.60
2023-10-15T03:09:00.873Z,10.60
2023-10-15T03:14:08.475Z,10.60
2023-10-15T03:19:18.539Z,10.50
2023-10-15T03:29:16.209Z,10.50
2023-10-15T03:36:53.155Z,10.30
2023-10-15T03:39:47.183Z,10.30
2023-10-15T03:44:46.464Z,10.20
2023-10-15T03:47:15.366Z,10.20
2023-10-15T03:49:45.394Z,10.10
2023-10-15T03:52:16.295Z,10.10
2023-10-15T03:54:49.246Z,10.20
2023-10-15T04:02:29.845Z,10.10
2023-10-15T04:05:09.284Z,10.00
2023-10-15T04:07:49.044Z,10.00
2023-10-15T04:10:24.014Z,10.00
2023-10-15T04:12:54.202Z,10.00
2023-10-15T04:15:23.917Z,9.90
2023-10-15T04:17:52.569Z,9.90
2023-10-15T04:20:37.360Z,9.90
2023-10-15T04:23:04.777Z,9.90
2023-10-15T04:25:34.842Z,9.80
2023-10-15T04:35:42.982Z,9.80
2023-10-15T04:40:58.119Z,9.70
2023-10-15T04:48:33.813Z,9.70
2023-10-15T04:51:13.812Z,9.70
2023-10-15T04:53:51.532Z,9.60
2023-10-15T05:01:15.963Z,9.50
2023-10-15T05:03:47.380Z,9.50
2023-10-15T05:06:14.645Z,9.50
2023-10-15T05:08:42.009Z,9.50
2023-10-15T05:11:10.529Z,9.40
2023-10-15T05:16:05.628Z,9.50
2023-10-15T05:18:34.138Z,9.40
2023-10-15T05:21:02.317Z,9.50
2023-10-15T05:30:52.428Z,9.30
2023-10-15T05:33:19.880Z,9.40
2023-10-15T05:35:50.665Z,9.20
2023-10-15T05:40:51.410Z,9.30
2023-10-15T05:45:48.788Z,9.30
2023-10-15T05:48:18.929Z,9.30
2023-10-15T05:50:52.599Z,9.20
2023-10-15T05:55:47.543Z,9.20
2023-10-15T06:08:05.709Z,9.30
2023-10-15T06:10:34.671Z,9.30
2023-10-15T06:13:02.974Z,9.40
2023-10-15T06:15:30.120Z,9.40
2023-10-15T06:22:57.178Z,9.20
2023-10-15T06:25:25.922Z,9.20
2023-10-15T06:30:24.473Z,9.20
2023-10-15T06:32:54.332Z,9.30
2023-10-15T06:35:24.461Z,9.30
2023-10-15T06:37:53.526Z,9.20
2023-10-15T06:40:24.092Z,9.30
2023-10-15T06:42:53.501Z,9.20
2023-10-15T06:45:21.889Z,9.30
2023-10-15T06:47:54.017Z,9.20
2023-10-15T06:52:54.477Z,9.20
2023-10-15T06:55:22.715Z,9.30
2023-10-15T06:57:50.599Z,9.30
2023-10-15T07:00:25.274Z,9.20
2023-10-15T07:02:56.931Z,9.00
2023-10-15T07:05:27.952Z,9.20
2023-10-15T07:07:59.092Z,9.10
2023-10-15T07:10:27.274Z,9.30
2023-10-15T07:12:55.869Z,9.20
2023-10-15T07:17:52.409Z,9.10
2023-10-15T07:20:26.344Z,9.10
2023-10-15T07:22:55.123Z,9.10
2023-10-15T07:25:22.823Z,9.40
2023-10-15T07:27:50.818Z,9.80
2023-10-15T07:30:21.423Z,10.10
2023-10-15T07:32:51.811Z,10.80
2023-10-15T07:35:18.782Z,11.00
2023-10-15T07:37:47.940Z,11.70
2023-10-15T07:40:21.831Z,12.00
2023-10-15T07:43:01.529Z,12.60
2023-10-15T07:45:33.389Z,12.80
2023-10-15T07:48:02.948Z,12.60
2023-10-15T07:50:31.844Z,12.60
2023-10-15T07:53:00.483Z,12.80
2023-10-15T07:55:28.379Z,12.90
2023-10-15T07:57:55.600Z,12.80
2023-10-15T08:00:27.349Z,12.80
2023-10-15T08:02:59.981Z,12.60
2023-10-15T08:05:36.526Z,12.90
2023-10-15T08:10:33.993Z,12.50
2023-10-15T08:13:03.156Z,12.70
2023-10-15T08:15:30.358Z,12.90
2023-10-15T08:18:00.183Z,13.00
2023-10-15T08:20:29.297Z,13.40
2023-10-15T08:22:56.518Z,13.70
2023-10-15T08:25:23.869Z,14.20
2023-10-15T08:27:53.531Z,13.80
2023-10-15T08:30:20.719Z,14.00
2023-10-15T08:35:17.103Z,13.40
2023-10-15T08:37:45.263Z,13.50
2023-10-15T08:43:03.117Z,14.10
2023-10-15T08:45:32.891Z,14.80
2023-10-15T08:48:03.209Z,14.80
2023-10-15T08:53:00.879Z,14.70
2023-10-15T08:55:28.037Z,14.30
2023-10-15T08:57:56.301Z,14.50
2023-10-15T09:02:58.827Z,14.60
2023-10-15T09:07:56.733Z,14.00
2023-10-15T09:10:24.807Z,14.00
2023-10-15T09:12:52.058Z,13.90
2023-10-15T09:15:20.371Z,13.80
2023-10-15T09:17:58.443Z,13.90
2023-10-15T09:23:03.646Z,13.70
2023-10-15T09:25:31.563Z,13.40
2023-10-15T09:27:59.780Z,13.50
2023-10-15T09:30:33.794Z,14.10
2023-10-15T09:40:32.509Z,12.70
2023-10-15T09:45:32.274Z,12.90
2023-10-15T09:50:39.708Z,12.60
2023-10-15T09:58:10.544Z,12.60
2023-10-15T10:00:49.326Z,12.70
2023-10-15T10:03:40.995Z,12.80
2023-10-15T10:06:31.738Z,13.10
2023-10-15T10:09:38.149Z,12.60
2023-10-15T10:12:15.004Z,12.80
2023-10-15T10:15:16.840Z,12.80
2023-10-15T10:20:14.762Z,12.90
2023-10-15T10:22:46.177Z,12.40
2023-10-15T10:25:33.910Z,12.00
2023-10-15T10:28:18.148Z,12.10
2023-10-15T10:31:12.886Z,12.10
2023-10-15T10:33:43.849Z,12.30
2023-10-15T10:36:22.918Z,12.90
2023-10-15T10:39:12.914Z,12.40
2023-10-15T10:41:49.979Z,12.30
2023-10-15T10:44:27.678Z,12.50
2023-10-15T10:46:57.726Z,12.20
2023-10-15T10:49:41.288Z,12.20
2023-10-15T10:52:18.269Z,12.00
2023-10-15T10:54:48.472Z,12.10
2023-10-15T10:57:19.560Z,11.80
2023-10-15T11:02:15.867Z,11.50
2023-10-15T11:04:43.611Z,11.60
2023-10-15T11:07:12.736Z,11.60
2023-10-15T11:12:13.503Z,11.80
2023-10-15T11:14:42.050Z,11.60
2023-10-15T11:19:39.294Z,11.80
2023-10-15T11:22:07.232Z,11.90
2023-10-15T11:24:34.456Z,12.00
2023-10-15T11:29:33.033Z,12.70
2023-10-15T11:32:00.438Z,11.70
2023-10-15T11:34:30.039Z,11.40
2023-10-15T11:36:58.373Z,11.20
2023-10-15T11:39:31.233Z,11.20
2023-10-15T11:44:32.890Z,11.10
2023-10-15T11:47:10.830Z,11.20
2023-10-15T11:52:13.067Z,11.30
2023-10-15T11:54:45.058Z,11.40
2023-10-15T11:57:20.354Z,11.70
2023-10-15T11:59:51.182Z,11.50
2023-10-15T12:02:20.213Z,11.20
2023-10-15T12:09:52.191Z,11.10
2023-10-15T12:12:19.877Z,11.00
2023-10-15T12:14:47.480Z,11.00
2023-10-15T12:17:17.795Z,11.20
2023-10-15T12:24:45.135Z,11.40
2023-10-15T12:27:12.442Z,11.10
2023-10-15T12:29:40.860Z,11.20
2023-10-15T12:32:14.046Z,11.20
2023-10-15T12:34:41.410Z,11.10
2023-10-15T12:42:12.909Z,10.90
2023-10-15T12:44:42.692Z,10.80
2023-10-15T12:47:09.919Z,10.80
2023-10-15T12:49:38.316Z,10.60
2023-10-15T12:52:05.933Z,10.50
2023-10-15T12:54:35.694Z,10.50
2023-10-15T12:59:34.857Z,10.30
2023-10-15T13:02:05.022Z,10.30
2023-10-15T13:06:59.674Z,10.30
2023-10-15T13:12:02.995Z,10.20
2023-10-15T13:19:25.810Z,10.10
2023-10-15T13:31:43.463Z,9.90
2023-10-15T13:34:10.996Z,9.90
2023-10-15T13:36:38.036Z,9.90
2023-10-15T13:51:26.460Z,9.90
2023-10-15T13:53:53.521Z,10.00
2023-10-15T13:58:48.734Z,10.00
2023-10-15T14:01:16.843Z,10.00
2023-10-15T14:11:08.881Z,9.90
2023-10-15T14:13:35.788Z,9.80
2023-10-15T14:35:46.428Z,9.50
2023-10-15T14:40:40.835Z,9.70
2023-10-15T14:43:08.721Z,9.70
2023-10-15T14:45:38.095Z,9.70
2023-10-15T14:48:06.203Z,9.60
2023-10-15T14:53:05.684Z,9.60
2023-10-15T15:00:27.755Z,9.50
2023-10-15T15:02:58.618Z,9.60
2023-10-15T15:07:53.666Z,9.30
2023-10-15T15:15:15.744Z,9.40
2023-10-15T15:17:43.001Z,9.30
2023-10-15T15:20:12.738Z,9.50
2023-10-15T15:22:42.298Z,9.40
2023-10-15T15:25:09.939Z,9.30
2023-10-15T15:32:38.197Z,9.30
2023-10-15T15:37:36.946Z,9.00
2023-10-15T15:40:08.895Z,9.00
2023-10-15T15:45:06.806Z,8.90
2023-10-15T15:47:34.044Z,9.00
2023-10-15T15:50:01.094Z,8.80
2023-10-15T15:54:57.532Z,8.70
2023-10-15T15:57:27.610Z,8.60
2023-10-15T15:59:54.892Z,8.60
2023-10-15T16:09:45.048Z,8.30
2023-10-15T16:17:08.476Z,8.20
2023-10-15T16:19:35.422Z,8.20
2023-10-15T16:24:30.049Z,8.10
2023-10-15T16:26:57.294Z,8.10
2023-10-15T16:31:54.046Z,8.10
2023-10-15T16:34:24.759Z,8.00
2023-10-15T16:36:52.579Z,7.90
2023-10-15T16:44:17.012Z,7.90
2023-10-15T16:49:11.786Z,7.80
2023-10-15T16:54:06.144Z,7.70
2023-10-15T17:06:26.402Z,7.60
2023-10-15T17:08:53.832Z,7.70
2023-10-15T17:11:20.926Z,7.60
2023-10-15T17:16:15.392Z,7.50
2023-10-15T17:18:42.423Z,7.50
2023-10-15T17:21:09.516Z,7.40
2023-10-15T17:28:31.734Z,7.20
2023-10-15T17:30:58.822Z,7.00
2023-10-15T17:40:50.299Z,7.20
2023-10-15T17:45:49.497Z,7.40
2023-10-15T17:55:39.195Z,7.30
2023-10-15T18:07:56.688Z,7.00
2023-10-15T18:15:18.818Z,7.00
2023-10-15T18:17:45.709Z,6.90
2023-10-15T18:25:16.832Z,6.90
2023-10-15T18:30:12.202Z,6.90
2023-10-15T18:32:39.208Z,6.90
2023-10-15T18:44:55.942Z,6.70
2023-10-15T18:47:22.853Z,6.60
2023-10-15T18:52:18.526Z,6.50
2023-10-15T18:57:12.881Z,6.50
2023-10-15T18:59:39.908Z,6.40
2023-10-15T19:07:01.499Z,6.40
2023-10-15T19:09:28.515Z,6.40
2023-10-15T19:16:50.888Z,6.20
2023-10-15T19:19:17.876Z,6.10
2023-10-15T19:21:44.855Z,6.10
2023-10-15T19:31:34.051Z,6.00
2023-10-15T19:38:56.944Z,6.10
2023-10-15T19:41:23.884Z,6.10
2023-10-15T19:48:46.859Z,6.30
2023-10-15T19:56:13.814Z,6.10
2023-10-15T20:06:23.582Z,6.00
2023-10-15T20:13:46.063Z,5.80
2023-10-15T20:26:05.476Z,5.70
2023-10-15T20:31:01.630Z,5.70
2023-10-15T20:33:28.703Z,5.60
2023-10-15T20:35:57.744Z,5.70
2023-10-15T20:40:54.787Z,5.80
2023-10-15T20:43:22.648Z,5.70
2023-10-15T20:48:17.403Z,5.70
2023-10-15T20:50:44.433Z,5.60
2023-10-15T20:53:11.395Z,5.60
2023-10-15T20:58:05.615Z,5.50
2023-10-15T21:00:32.614Z,5.50
2023-10-15T21:03:01.569Z,5.50
2023-10-15T21:05:28.651Z,5.40
2023-10-15T21:10:24.147Z,5.40
2023-10-15T21:22:44.707Z,5.20
2023-10-15T21:25:16.523Z,5.20
2023-10-15T21:27:44.379Z,5.30
2023-10-15T21:30:13.044Z,4.00
2023-10-15T21:32:41.314Z,5.10
2023-10-15T21:35:09.398Z,5.10
2023-10-15T21:37:41.009Z,5.10
2023-10-15T21:40:16.109Z,5.00
2023-10-15T21:42:44.376Z,5.00
2023-10-15T21:45:13.047Z,4.80
2023-10-15T21:47:41.167Z,4.90
2023-10-15T21:50:08.983Z,4.90
2023-10-15T21:52:38.448Z,4.80
2023-10-15T21:55:06.265Z,5.50
2023-10-15T21:57:34.164Z,5.10
2023-10-15T22:00:01.930Z,4.80
2023-10-15T22:07:24.532Z,4.90
2023-10-15T22:09:51.477Z,4.90
2023-10-15T22:14:47.413Z,4.30
2023-10-15T22:19:44.394Z,4.60
2023-10-15T22:29:43.439Z,4.60
2023-10-15T22:32:12.068Z,4.50
2023-10-15T22:34:39.321Z,4.60
2023-10-15T22:37:09.325Z,4.80
2023-10-15T22:47:15.463Z,4.70
2023-10-15T22:49:42.880Z,4.60
2023-10-15T22:52:09.929Z,4.40
2023-10-15T22:54:37.316Z,4.50
2023-10-15T22:57:04.828Z,4.40
2023-10-15T22:59:32.241Z,4.30
2023-10-15T23:02:00.079Z,4.30
2023-10-15T23:09:23.030Z,4.50
2023-10-15T23:11:50.396Z,4.70
2023-10-15T23:19:17.002Z,4.20
2023-10-15T23:29:13.997Z,4.50
2023-10-15T23:39:17.435Z,4.40
2023-10-15T23:44:11.932Z,4.40
2023-10-15T23:49:12.962Z,4.10
2023-10-15T23:51:41.954Z,3.90
2023-10-15T23:54:15.998Z,4.00
2023-10-15T23:59:10.651Z,3.90
